Time;durP1;ratioP1;P1;durP2;ratioP2;P2;SDS_P1;SDS_P2;PMS_P1;PMS_P2;Temp;Humidity;BMP_temperature;BMP_pressure;BME280_temperature;BME280_humidity;BME280_pressure;Samples;Min_cycle;Max_cycle;Signal;HPM_P1;HPM_P2
2022/06/29 00:00:29;;;;;;;9.02;5.07;;;23.80;99.90;;;;;;5095444;28;20035;-48
2022/06/29 00:02:55;;;;;;;9.05;5.78;;;23.70;99.90;;;;;;5097004;28;20360;-49
2022/06/29 00:05:23;;;;;;;8.40;4.93;;;23.60;99.90;;;;;;5096900;28;20103;-49
2022/06/29 00:07:50;;;;;;;7.18;4.93;;;23.60;99.90;;;;;;5097405;28;20054;-49
2022/06/29 00:10:16;;;;;;;6.63;5.22;;;23.80;99.90;;;;;;5097078;28;20032;-48
2022/06/29 00:12:44;;;;;;;8.50;5.90;;;23.70;99.90;;;;;;5096845;28;20604;-49
2022/06/29 00:15:11;;;;;;;10.15;6.60;;;23.40;99.90;;;;;;5096708;28;20169;-50
2022/06/29 00:17:36;;;;;;;6.30;5.22;;;23.40;99.90;;;;;;5094904;28;20043;-49
2022/06/29 00:20:05;;;;;;;7.53;6.28;;;23.30;99.90;;;;;;5061121;28;20425;-50
2022/06/29 00:22:31;;;;;;;9.35;5.53;;;23.20;99.90;;;;;;5077436;28;20036;-50
2022/06/29 00:24:57;;;;;;;9.35;7.07;;;23.20;99.90;;;;;;5094753;28;20431;-49
2022/06/29 00:27:24;;;;;;;7.05;6.35;;;23.20;99.90;;;;;;5096724;28;20031;-49
2022/06/29 00:29:50;;;;;;;7.95;6.55;;;23.20;99.90;;;;;;5096779;28;20027;-48
2022/06/29 00:32:16;;;;;;;9.55;6.85;;;23.10;99.90;;;;;;5077693;28;20044;-49
2022/06/29 00:34:43;;;;;;;8.02;7.10;;;23.10;99.90;;;;;;5096480;28;20381;-49
2022/06/29 00:37:08;;;;;;;11.85;7.47;;;23.00;99.90;;;;;;5096394;28;20387;-49
2022/06/29 00:39:35;;;;;;;9.70;7.53;;;23.00;99.90;;;;;;5096240;28;20024;-50
2022/06/29 00:42:01;;;;;;;9.30;7.15;;;22.80;99.90;;;;;;5077581;28;20064;-48
2022/06/29 00:44:27;;;;;;;7.55;6.57;;;;;;;;;;5096226;28;20066;-49
2022/06/29 00:46:58;;;;;;;8.32;6.78;;;22.70;99.90;;;;;;5096449;28;20028;-49
2022/06/29 00:49:27;;;;;;;8.43;6.20;;;22.60;99.90;;;;;;5096215;28;20032;-48
2022/06/29 00:52:11;;;;;;;9.10;6.57;;;22.70;99.90;;;;;;5095991;28;20260;-49
2022/06/29 00:54:51;;;;;;;9.00;6.65;;;22.70;99.90;;;;;;5095953;28;20036;-50
2022/06/29 00:57:23;;;;;;;11.88;7.07;;;22.70;99.90;;;;;;5095994;28;20043;-49
2022/06/29 00:59:50;;;;;;;8.05;6.55;;;;;;;;;;5076281;28;20064;-48
2022/06/29 01:02:19;;;;;;;9.88;6.80;;;22.40;99.90;;;;;;5095970;28;20099;-49
2022/06/29 01:04:46;;;;;;;7.07;5.97;;;22.30;99.90;;;;;;5095860;28;20031;-49
2022/06/29 01:07:18;;;;;;;13.70;7.43;;;22.30;99.90;;;;;;5095884;28;20024;-50
2022/06/29 01:09:45;;;;;;;10.27;7.40;;;22.30;99.90;;;;;;5095744;28;20036;-48
2022/06/29 01:12:13;;;;;;;10.00;7.25;;;22.20;99.90;;;;;;5095807;28;20032;-48
2022/06/29 01:14:45;;;;;;;8.82;7.93;;;;;;;;;;5095761;28;20031;-49
2022/06/29 01:17:11;;;;;;;10.63;7.20;;;;;;;;;;5095622;28;20038;-49
2022/06/29 01:19:38;;;;;;;15.20;6.70;;;;;;;;;;5076761;28;20089;-50
2022/06/29 01:22:12;;;;;;;9.75;7.10;;;22.60;99.90;;;;;;5095529;28;20119;-49
2022/06/29 01:24:38;;;;;;;9.85;6.40;;;;;;;;;;5095444;28;20044;-50
2022/06/29 01:27:05;;;;;;;9.25;6.45;;;;;;;;;;5095588;28;20028;-49
2022/06/29 01:29:31;;;;;;;10.00;6.63;;;;;;;;;;5095540;28;20467;-49
2022/06/29 01:31:57;;;;;;;9.40;6.47;;;;;;;;;;5095428;28;20024;-49
2022/06/29 01:34:24;;;;;;;9.55;6.05;;;;;;;;;;5093517;28;20032;-49
2022/06/29 01:36:50;;;;;;;8.18;7.05;;;;;;;;;;5095353;28;20036;-48
2022/06/29 01:39:16;;;;;;;9.80;6.82;;;;;;;;;;5095159;28;20032;-49
2022/06/29 01:41:42;;;;;;;9.10;6.88;;;;;;;;;;5095259;28;20035;-48
2022/06/29 01:44:08;;;;;;;9.43;6.55;;;;;;;;;;5095587;28;20020;-49
2022/06/29 01:46:35;;;;;;;10.65;6.88;;;;;;;;;;5095058;28;20020;-50
2022/06/29 01:49:01;;;;;;;7.47;6.53;;;;;;;;;;5093152;28;20059;-49
2022/06/29 01:51:27;;;;;;;11.65;7.18;;;;;;;;;;5094978;28;20034;-51
2022/06/29 01:53:53;;;;;;;10.52;7.05;;;;;;;;;;5094890;28;20055;-49
2022/06/29 01:56:19;;;;;;;9.63;6.97;;;;;;;;;;5094812;28;20024;-48
2022/06/29 01:58:47;;;;;;;7.95;7.15;;;;;;;;;;5094898;28;20024;-51
2022/06/29 02:01:13;;;;;;;7.45;6.75;;;;;;;;;;5095151;28;20031;-51
2022/06/29 02:03:39;;;;;;;12.30;8.02;;;;;;;;;;5094591;28;20490;-51
2022/06/29 02:06:06;;;;;;;9.10;7.75;;;;;;;;;;5094536;28;20028;-49
2022/06/29 02:08:32;;;;;;;10.27;8.38;;;;;;;;;;5094834;28;20032;-49
2022/06/29 02:10:59;;;;;;;11.23;7.93;;;;;;;;;;5094832;28;20032;-49
2022/06/29 02:13:25;;;;;;;10.48;7.88;;;;;;;;;;5094467;28;20380;-48
2022/06/29 02:15:51;;;;;;;12.07;7.72;;;;;;;;;;5094864;28;20043;-48
2022/06/29 02:18:17;;;;;;;9.90;7.65;;;;;;;;;;5094614;28;20032;-49
2022/06/29 02:20:44;;;;;;;11.45;7.85;;;;;;;;;;5078325;28;20036;-48
2022/06/29 02:23:10;;;;;;;9.05;7.10;;;;;;;;;;5084369;28;20040;-49
2022/06/29 02:25:36;;;;;;;11.10;8.48;;;;;;;;;;5094330;28;20038;-48
2022/06/29 02:28:02;;;;;;;11.50;8.38;;;22.30;99.90;;;;;;5094448;28;20106;-49
2022/06/29 02:35:57;;;;;;;8.75;7.20;;;22.30;99.90;;;;;;5092424;28;20517;-50
2022/06/29 02:38:23;;;;;;;11.07;7.03;;;22.20;99.90;;;;;;5075224;28;20036;-49
2022/06/29 02:40:49;;;;;;;9.45;7.45;;;22.10;99.90;;;;;;5094066;28;20075;-48
2022/06/29 02:43:14;;;;;;;11.02;7.07;;;22.20;99.90;;;;;;5109162;28;20056;-48
2022/06/29 02:45:40;;;;;;;10.02;7.78;;;22.10;99.90;;;;;;5093953;28;20020;-49
2022/06/29 02:48:07;;;;;;;10.77;7.60;;;22.00;99.90;;;;;;5093999;28;20056;-49
2022/06/29 02:50:32;;;;;;;9.68;7.90;;;22.20;99.90;;;;;;5094043;28;20024;-48
2022/06/29 02:52:58;;;;;;;9.45;7.72;;;22.10;99.90;;;;;;5074844;28;20043;-49
2022/06/29 02:55:24;;;;;;;9.00;7.10;;;22.10;99.90;;;;;;5108835;28;20571;-48
2022/06/29 02:57:49;;;;;;;12.38;7.05;;;21.90;99.90;;;;;;5093735;28;20085;-49
2022/06/29 03:00:15;;;;;;;8.68;7.55;;;21.80;99.90;;;;;;5093567;28;20464;-48
2022/06/29 03:02:42;;;;;;;10.52;8.00;;;21.90;99.90;;;;;;5090769;28;20123;-48
2022/06/29 03:05:08;;;;;;;10.60;8.32;;;21.80;99.90;;;;;;5108763;28;20091;-51
2022/06/29 03:07:34;;;;;;;7.97;7.05;;;21.80;99.90;;;;;;5091943;28;20130;-48
2022/06/29 03:09:59;;;;;;;9.68;7.68;;;21.90;99.90;;;;;;5108647;28;20111;-50
2022/06/29 03:12:25;;;;;;;10.90;7.72;;;22.10;99.90;;;;;;5111803;28;20027;-49
2022/06/29 03:14:51;;;;;;;11.93;7.00;;;22.20;99.90;;;;;;5114262;28;20087;-49
2022/06/29 03:17:18;;;;;;;8.90;7.20;;;22.30;99.90;;;;;;5114079;28;20031;-49
2022/06/29 03:19:44;;;;;;;10.07;7.60;;;22.40;99.90;;;;;;5058179;28;20084;-49
2022/06/29 03:22:10;;;;;;;11.45;7.53;;;22.40;99.90;;;;;;5093148;28;20032;-49
2022/06/29 03:24:35;;;;;;;13.65;9.60;;;22.30;99.90;;;;;;5093472;28;20044;-49
2022/06/29 03:27:01;;;;;;;20.88;11.85;;;22.20;99.90;;;;;;5091575;28;20032;-49
2022/06/29 03:29:27;;;;;;;19.38;12.77;;;22.10;99.90;;;;;;5091541;28;20042;-49
2022/06/29 03:31:53;;;;;;;18.50;13.95;;;22.00;99.90;;;;;;5074383;28;20050;-49
2022/06/29 03:34:18;;;;;;;27.27;17.02;;;22.10;99.90;;;;;;5093204;28;20028;-49
2022/06/29 03:36:44;;;;;;;24.95;16.73;;;21.90;99.90;;;;;;5093897;28;20028;-48
2022/06/29 03:39:10;;;;;;;24.92;16.17;;;21.90;99.90;;;;;;5093760;28;20480;-49
2022/06/29 03:41:36;;;;;;;23.08;15.07;;;21.80;99.90;;;;;;5093616;28;20459;-48
2022/06/29 03:44:01;;;;;;;15.20;10.93;;;21.80;99.90;;;;;;5057820;28;20044;-49
2022/06/29 03:46:27;;;;;;;13.40;9.27;;;21.80;99.90;;;;;;5093141;28;20099;-49
2022/06/29 03:48:53;;;;;;;9.68;8.32;;;21.90;99.90;;;;;;5093530;28;20062;-50
2022/06/29 03:51:19;;;;;;;8.82;7.93;;;21.90;99.90;;;;;;5093253;28;20024;-51
2022/06/29 03:53:45;;;;;;;8.85;7.50;;;;;;;;;;5093641;28;20027;-50
2022/06/29 03:56:10;;;;;;;9.13;8.18;;;22.00;99.90;;;;;;5093483;28;20070;-49
2022/06/29 03:58:37;;;;;;;11.88;8.02;;;22.10;99.90;;;;;;5093107;28;20024;-50
2022/06/29 04:01:04;;;;;;;7.75;6.88;;;22.10;99.90;;;;;;5096072;28;20388;-50
2022/06/29 04:03:30;;;;;;;8.30;7.32;;;;;;;;;;5113435;28;20019;-50
2022/06/29 04:05:56;;;;;;;8.98;6.78;;;;;;;;;;5072751;28;20036;-50
2022/06/29 04:08:22;;;;;;;11.13;7.13;;;;;;;;;;5112018;28;20368;-50
2022/06/29 04:10:48;;;;;;;8.23;7.07;;;;;;;;;;5105591;28;20356;-49
2022/06/29 04:13:14;;;;;;;11.23;8.15;;;;;;;;;;5113633;28;20028;-50
2022/06/29 04:15:41;;;;;;;10.75;8.05;;;;;;;;;;5113255;28;20032;-49
2022/06/29 04:18:07;;;;;;;9.88;7.90;;;;;;;;;;5106302;28;21436;-50
2022/06/29 04:23:18;;;;;;;9.68;6.93;;;;;;;;;;5092971;28;20073;-50
2022/06/29 04:25:44;;;;;;;8.07;6.55;;;23.60;99.90;;;;;;5092895;28;20032;-49
2022/06/29 04:28:09;;;;;;;13.40;7.13;;;23.60;99.90;;;;;;5093212;28;20031;-49
2022/06/29 04:30:35;;;;;;;8.30;6.35;;;23.70;99.90;;;;;;5099041;28;20031;-50
2022/06/29 04:33:01;;;;;;;7.40;6.18;;;23.80;99.90;;;;;;5082759;28;20051;-50
2022/06/29 04:35:27;;;;;;;8.60;5.85;;;23.90;99.90;;;;;;5078062;28;20047;-50
2022/06/29 04:37:53;;;;;;;9.05;5.97;;;23.90;99.90;;;;;;5095310;28;20039;-49
2022/06/29 04:40:18;;;;;;;10.38;6.65;;;24.00;99.90;;;;;;5116807;28;20028;-50
2022/06/29 04:42:44;;;;;;;10.13;6.03;;;24.20;99.90;;;;;;5115000;28;20031;-49
2022/06/29 04:48:00;;;;;;;7.32;6.50;;;24.30;99.90;;;;;;5120565;27;20507;-50
2022/06/29 04:50:27;;;;;;;7.30;6.50;;;24.50;99.90;;;;;;5134948;27;20031;-49
2022/06/29 04:52:53;;;;;;;10.30;5.53;;;24.50;99.90;;;;;;5134972;27;20073;-50
2022/06/29 04:55:19;;;;;;;8.70;5.45;;;24.60;99.90;;;;;;5135030;27;20512;-50
2022/06/29 04:57:46;;;;;;;6.72;5.95;;;;;;;;;;5135018;27;20027;-50
2022/06/29 05:00:12;;;;;;;9.75;6.20;;;24.90;99.90;;;;;;5135038;27;20039;-50
2022/06/29 05:02:38;;;;;;;11.35;6.07;;;;;;;;;;5083540;27;20043;-51
2022/06/29 05:05:04;;;;;;;6.78;5.75;;;25.00;99.90;;;;;;5134812;27;20039;-49
2022/06/29 05:07:30;;;;;;;11.40;5.22;;;25.10;99.90;;;;;;5117395;27;20038;-52
2022/06/29 05:09:56;;;;;;;6.65;4.60;;;25.00;99.90;;;;;;5134696;27;20023;-52
2022/06/29 05:12:22;;;;;;;8.40;5.57;;;25.10;99.90;;;;;;5134917;27;20076;-52
2022/06/29 05:14:47;;;;;;;6.60;4.28;;;25.20;99.90;;;;;;5134477;27;20031;-52
2022/06/29 05:17:13;;;;;;;5.60;5.00;;;25.20;99.90;;;;;;5134672;27;20023;-52
2022/06/29 05:19:39;;;;;;;8.30;4.63;;;;;;;;;;5134443;27;20114;-53
2022/06/29 05:22:05;;;;;;;6.97;4.22;;;;;;;;;;5134491;27;20031;-52
2022/06/29 05:24:31;;;;;;;11.40;4.55;;;25.70;99.90;;;;;;5122793;27;20044;-52
2022/06/29 05:26:57;;;;;;;6.97;4.38;;;;;;;;;;5095831;28;20113;-53
2022/06/29 05:29:25;;;;;;;24.65;10.15;;;;;;;;;;5095691;28;20024;-55
2022/06/29 05:31:52;;;;;;;7.18;4.40;;;;;;;;;;5095419;28;20035;-53
2022/06/29 05:34:18;;;;;;;7.32;4.68;;;25.80;99.90;;;;;;5096880;28;20032;-52
2022/06/29 05:36:44;;;;;;;5.15;4.40;;;;;;;;;;5115574;28;20039;-54
2022/06/29 05:39:10;;;;;;;7.20;4.80;;;26.30;99.90;;;;;;5115809;28;20080;-54
2022/06/29 05:41:36;;;;;;;5.47;3.90;;;26.30;99.90;;;;;;5130981;27;20040;-53
2022/06/29 05:44:04;;;;;;;6.97;3.33;;;26.40;99.90;;;;;;5114288;28;20031;-54
2022/06/29 05:46:31;;;;;;;6.72;4.32;;;26.10;99.90;;;;;;5115267;28;20370;-55
2022/06/29 05:48:56;;;;;;;5.53;3.78;;;26.20;99.90;;;;;;5115656;27;20058;-53
2022/06/29 05:51:22;;;;;;;7.05;4.65;;;26.40;99.90;;;;;;5115726;28;20020;-53
2022/06/29 05:53:49;;;;;;;9.35;4.85;;;26.50;99.90;;;;;;5114716;27;20147;-56
2022/06/29 05:56:15;;;;;;;11.95;4.38;;;26.50;99.90;;;;;;5115633;28;20047;-52
2022/06/29 05:58:41;;;;;;;19.33;6.03;;;26.70;99.90;;;;;;5115366;28;20038;-54
2022/06/29 06:01:09;;;;;;;8.05;4.15;;;;;;;;;;5130552;27;20469;-53
2022/06/29 06:03:36;;;;;;;7.55;4.05;;;27.10;99.90;;;;;;5115397;28;20032;-52
2022/06/29 06:06:02;;;;;;;5.57;3.90;;;27.00;99.90;;;;;;5115909;27;20068;-52
2022/06/29 06:08:27;;;;;;;9.98;4.32;;;27.00;99.90;;;;;;5115184;27;20084;-54
2022/06/29 06:10:53;;;;;;;4.65;3.65;;;27.10;99.90;;;;;;5115281;28;20028;-53
2022/06/29 06:13:19;;;;;;;7.97;4.03;;;27.10;99.90;;;;;;5130493;27;20110;-54
2022/06/29 06:15:47;;;;;;;8.40;3.97;;;27.30;99.90;;;;;;5114660;28;20172;-53
2022/06/29 06:18:13;;;;;;;6.72;3.90;;;;;;;;;;5115354;28;20080;-51
2022/06/29 06:20:39;;;;;;;9.50;4.15;;;27.60;99.90;;;;;;5114881;28;20554;-55
2022/06/29 06:23:05;;;;;;;6.32;3.83;;;27.50;99.90;;;;;;5130129;27;20118;-55
2022/06/29 06:25:31;;;;;;;4.95;4.10;;;;;;;;;;5114873;28;20104;-55
2022/06/29 06:27:58;;;;;;;7.88;3.95;;;;;;;;;;5115279;28;20478;-55
2022/06/29 06:30:24;;;;;;;6.85;3.75;;;28.50;99.90;;;;;;5114723;28;20027;-55
2022/06/29 06:32:49;;;;;;;5.75;3.88;;;28.20;99.90;;;;;;5112779;28;20417;-55
2022/06/29 06:35:15;;;;;;;4.65;3.95;;;28.30;99.90;;;;;;5114648;28;20123;-54
2022/06/29 06:37:43;;;;;;;7.45;4.38;;;28.20;99.90;;;;;;5133146;27;20510;-55
2022/06/29 06:42:54;;;;;;;8.02;3.95;;;28.50;99.90;;;;;;5132861;27;20150;-54
2022/06/29 06:45:20;;;;;;;6.43;4.25;;;28.60;99.90;;;;;;5133313;27;20504;-55
2022/06/29 06:47:45;;;;;;;8.75;4.75;;;28.60;99.90;;;;;;5133227;27;20027;-55
2022/06/29 06:50:12;;;;;;;7.32;4.00;;;;;;;;;;5098659;27;20041;-54
2022/06/29 06:52:37;;;;;;;9.85;4.32;;;29.10;99.90;;;;;;5132914;27;20050;-55
2022/06/29 06:55:04;;;;;;;7.43;4.50;;;29.20;99.90;;;;;;5098407;27;20039;-54
2022/06/29 06:57:29;;;;;;;4.65;3.45;;;29.30;99.90;;;;;;5132053;27;20114;-54
2022/06/29 06:59:55;;;;;;;5.22;3.90;;;29.40;99.90;;;;;;5132660;27;20110;-54
2022/06/29 07:02:21;;;;;;;8.27;4.38;;;29.50;99.90;;;;;;5132582;27;20019;-54
2022/06/29 07:04:47;;;;;;;5.85;3.83;;;;;;;;;;5132622;27;20080;-54
2022/06/29 07:07:14;;;;;;;5.57;4.20;;;29.50;99.90;;;;;;5132445;27;20031;-55
2022/06/29 07:09:40;;;;;;;7.63;4.03;;;29.70;99.90;;;;;;5095502;28;20035;-54
2022/06/29 07:12:06;;;;;;;5.93;3.70;;;29.90;99.90;;;;;;5114218;28;20131;-54
2022/06/29 07:14:32;;;;;;;7.82;3.65;;;;;;;;;;5114027;28;20391;-54
2022/06/29 07:16:58;;;;;;;5.68;4.10;;;30.00;99.90;;;;;;5113916;28;20023;-54
2022/06/29 07:19:24;;;;;;;5.88;3.70;;;30.30;99.90;;;;;;5112409;28;20382;-54
2022/06/29 07:21:50;;;;;;;4.50;3.63;;;;;;;;;;5078216;28;20040;-54
2022/06/29 07:24:16;;;;;;;3.95;3.10;;;;;;;;;;5113739;28;20047;-54
2022/06/29 07:26:43;;;;;;;7.25;3.78;;;30.50;99.90;;;;;;5114252;28;20390;-55
2022/06/29 07:29:09;;;;;;;7.40;3.65;;;;;;;;;;5114148;28;20080;-54
2022/06/29 07:31:35;;;;;;;6.43;4.00;;;30.60;99.90;;;;;;5114063;28;20063;-55
2022/06/29 07:34:01;;;;;;;5.45;3.30;;;30.70;99.90;;;;;;5113899;28;20069;-55
2022/06/29 07:36:27;;;;;;;4.65;3.40;;;30.70;99.90;;;;;;5129129;28;20092;-55
2022/06/29 07:38:53;;;;;;;4.03;2.50;;;30.90;99.90;;;;;;5113965;28;20489;-54
2022/06/29 07:41:18;;;;;;;5.90;3.63;;;30.50;99.90;;;;;;5113858;28;20032;-53
2022/06/29 07:43:44;;;;;;;5.53;3.60;;;30.70;99.90;;;;;;5078262;28;20482;-52
2022/06/29 07:46:10;;;;;;;7.63;3.75;;;30.90;99.90;;;;;;5113880;28;20039;-52
2022/06/29 07:48:37;;;;;;;6.10;3.70;;;;;;;;;;5114070;28;20027;-52
2022/06/29 07:51:02;;;;;;;6.03;4.03;;;31.10;99.90;;;;;;5113861;28;20051;-53
2022/06/29 07:53:29;;;;;;;7.40;3.53;;;31.10;99.90;;;;;;5113658;28;20475;-52
2022/06/29 07:55:55;;;;;;;5.15;3.75;;;31.30;99.90;;;;;;5113587;28;20047;-52
2022/06/29 07:58:21;;;;;;;12.43;4.20;;;31.30;99.90;;;;;;5113470;28;20030;-52
2022/06/29 08:00:47;;;;;;;6.55;3.75;;;31.60;99.90;;;;;;5113403;28;20414;-55
2022/06/29 08:03:14;;;;;;;5.82;4.13;;;31.50;99.90;;;;;;5113253;28;20032;-55
2022/06/29 08:05:40;;;;;;;5.75;3.42;;;31.60;99.90;;;;;;5113567;28;20038;-55
2022/06/29 08:08:06;;;;;;;16.98;3.08;;;;;;;;;;5114420;28;20161;-54
2022/06/29 08:10:33;;;;;;;6.45;3.50;;;;;;;;;;5117737;28;20027;-54
2022/06/29 08:12:59;;;;;;;2.80;2.53;;;31.50;99.90;;;;;;5117501;28;20441;-55
2022/06/29 08:15:26;;;;;;;3.83;3.40;;;31.60;99.90;;;;;;5117337;28;20044;-54
2022/06/29 08:17:52;;;;;;;3.88;3.45;;;32.10;99.90;;;;;;5117967;28;20031;-54
2022/06/29 08:20:19;;;;;;;10.05;3.97;;;32.30;99.90;;;;;;5117171;28;20024;-55
2022/06/29 08:22:45;;;;;;;7.72;3.47;;;32.30;99.90;;;;;;5117400;28;20027;-54
2022/06/29 08:25:12;;;;;;;7.35;3.38;;;32.30;99.90;;;;;;5116882;27;20096;-55
2022/06/29 08:27:38;;;;;;;5.53;3.47;;;32.30;99.90;;;;;;5117287;28;20028;-54
2022/06/29 08:30:05;;;;;;;3.53;3.22;;;;;;;;;;5132516;27;20478;-54
2022/06/29 08:32:31;;;;;;;6.28;3.60;;;;;;;;;;5115383;28;20044;-56
2022/06/29 08:35:00;;;;;;;4.18;2.80;;;;;;;;;;5116868;28;20020;-53
2022/06/29 08:37:27;;;;;;;4.95;3.60;;;;;;;;;;5117008;28;20372;-56
2022/06/29 08:39:53;;;;;;;5.95;2.63;;;;;;;;;;5117235;28;20039;-55
2022/06/29 08:42:23;;;;;;;4.72;2.92;;;;;;;;;;5114993;28;20071;-58
2022/06/29 08:44:49;;;;;;;3.83;3.17;;;;;;;;;;5116856;28;20035;-55
2022/06/29 08:47:15;;;;;;;4.20;2.88;;;;;;;;;;5116648;28;20106;-56
2022/06/29 08:49:44;;;;;;;3.92;2.70;;;33.00;97.70;;;;;;5116617;28;20482;-58
2022/06/29 08:52:10;;;;;;;6.68;3.30;;;32.90;98.30;;;;;;5116860;28;20039;-55
2022/06/29 08:54:40;;;;;;;5.35;2.80;;;33.20;98.00;;;;;;5116624;28;20040;-54
2022/06/29 08:57:07;;;;;;;5.55;2.97;;;33.20;97.10;;;;;;5116547;28;20035;-54
2022/06/29 08:59:34;;;;;;;4.00;2.22;;;33.20;96.60;;;;;;5116285;28;20035;-56
2022/06/29 09:02:00;;;;;;;4.82;2.97;;;33.10;95.70;;;;;;5116173;28;20092;-52
2022/06/29 09:04:26;;;;;;;6.13;2.92;;;;;;;;;;5116502;27;20073;-53
2022/06/29 09:06:54;;;;;;;4.55;2.67;;;;;;;;;;5116324;28;20024;-56
2022/06/29 09:09:20;;;;;;;4.90;2.58;;;;;;;;;;5116383;28;20032;-55
2022/06/29 09:11:48;;;;;;;5.00;2.45;;;33.30;99.90;;;;;;5116308;28;20076;-55
2022/06/29 09:14:25;;;;;;;4.90;2.80;;;33.60;94.90;;;;;;5116216;28;20027;-58
2022/06/29 09:16:52;;;;;;;8.02;3.08;;;33.70;94.80;;;;;;5115925;28;20494;-55
2022/06/29 09:19:19;;;;;;;3.60;2.22;;;;;;;;;;5115631;27;20077;-58
2022/06/29 09:21:50;;;;;;;3.53;2.55;;;;;;;;;;5115569;28;20032;-58
2022/06/29 09:24:20;;;;;;;3.55;2.40;;;;;;;;;;5116068;28;20039;-57
2022/06/29 09:26:50;;;;;;;3.53;2.90;;;;;;;;;;5115971;28;20028;-58
2022/06/29 09:29:27;;;;;;;7.97;2.83;;;34.90;99.90;;;;;;5115969;28;20032;-57
2022/06/29 09:32:04;;;;;;;3.88;2.58;;;34.30;93.50;;;;;;5114879;27;20063;-55
2022/06/29 09:34:30;;;;;;;3.97;2.75;;;34.10;92.80;;;;;;5115831;28;20036;-57
2022/06/29 09:36:58;;;;;;;4.57;2.55;;;34.10;92.70;;;;;;5115993;28;20122;-56
2022/06/29 09:39:52;;;;;;;4.18;2.60;;;34.10;92.50;;;;;;5115742;28;20081;-55
2022/06/29 09:42:20;;;;;;;4.65;2.22;;;34.00;92.50;;;;;;5115734;27;20046;-56
2022/06/29 09:44:47;;;;;;;3.95;2.35;;;34.10;92.30;;;;;;5115724;28;20104;-56
2022/06/29 09:47:20;;;;;;;2.95;2.20;;;34.40;92.50;;;;;;5113852;28;20046;-56
2022/06/29 09:49:56;;;;;;;3.03;2.38;;;34.30;91.80;;;;;;5115688;28;20474;-53
2022/06/29 09:52:24;;;;;;;3.13;2.65;;;34.30;91.80;;;;;;5115382;28;20035;-53
2022/06/29 09:54:58;;;;;;;3.25;2.40;;;34.30;91.90;;;;;;5114492;27;20394;-55
2022/06/29 09:57:29;;;;;;;2.95;2.53;;;34.60;92.20;;;;;;5115758;28;20031;-56
2022/06/29 10:02:47;;;;;;;4.07;2.15;;;34.30;91.00;;;;;;5113349;28;20062;-54
2022/06/29 10:05:20;;;;;;;2.88;2.25;;;34.30;91.10;;;;;;5115836;28;20456;-55
2022/06/29 10:07:49;;;;;;;6.03;2.60;;;34.30;90.10;;;;;;5113126;28;20386;-55
2022/06/29 10:10:16;;;;;;;3.17;2.17;;;34.70;90.60;;;;;;5114961;28;20046;-55
2022/06/29 10:15:54;;;;;;;3.88;2.10;;;35.10;91.00;;;;;;5134272;27;20064;-54
2022/06/29 10:18:41;;;;;;;3.03;1.85;;;34.90;91.70;;;;;;5135482;27;20042;-53
2022/06/29 10:21:25;;;;;;;2.53;1.80;;;34.90;91.30;;;;;;5135582;27;20023;-54
2022/06/29 10:23:52;;;;;;;8.48;2.38;;;35.10;91.40;;;;;;5135373;27;20035;-55
2022/06/29 10:26:36;;;;;;;6.03;2.53;;;35.40;94.10;;;;;;5135395;27;20435;-55
2022/06/29 10:29:08;;;;;;;2.97;2.13;;;35.10;89.50;;;;;;5135543;27;20031;-53
2022/06/29 10:31:53;;;;;;;5.00;1.98;;;34.80;89.20;;;;;;5134304;27;20031;-54
2022/06/29 10:34:31;;;;;;;5.03;1.75;;;35.10;89.20;;;;;;5136019;27;20034;-54
2022/06/29 10:37:13;;;;;;;3.03;1.88;;;35.30;88.20;;;;;;5135093;27;20095;-55
2022/06/29 10:39:41;;;;;;;6.50;2.00;;;35.10;87.50;;;;;;5135774;27;20369;-54
2022/06/29 10:45:15;;;;;;;4.05;1.70;;;;;;;;;;5135059;27;20030;-53
2022/06/29 10:47:45;;;;;;;4.88;2.05;;;35.50;93.80;;;;;;5135091;27;20109;-54
2022/06/29 10:50:18;;;;;;;3.03;1.67;;;35.40;93.20;;;;;;5135097;27;20035;-55
2022/06/29 10:52:44;;;;;;;8.75;2.00;;;35.70;93.60;;;;;;5134775;27;20501;-55
2022/06/29 10:55:11;;;;;;;4.57;1.80;;;35.50;93.00;;;;;;5134881;27;20031;-56
2022/06/29 10:57:38;;;;;;;2.28;1.30;;;35.70;92.60;;;;;;5135261;27;20137;-55
2022/06/29 11:00:08;;;;;;;4.70;1.65;;;35.60;93.80;;;;;;5135360;27;20030;-55
2022/06/29 11:02:35;;;;;;;1.75;1.20;;;35.90;93.80;;;;;;5134923;27;20420;-56
2022/06/29 11:05:01;;;;;;;1.92;1.40;;;35.40;93.50;;;;;;5134717;27;20027;-55
2022/06/29 11:12:57;;;;;;;5.45;1.90;;;35.60;93.40;;;;;;5135037;27;20030;-56
2022/06/29 11:15:39;;;;;;;2.13;1.35;;;36.00;92.70;;;;;;5134887;27;20037;-54
2022/06/29 11:18:10;;;;;;;2.97;1.95;;;35.50;80.90;;;;;;5134600;27;20070;-55
2022/06/29 11:20:37;;;;;;;;;;;35.60;82.60;;;;;;5135083;27;20112;-55
2022/06/29 11:23:02;;;;;;;5.00;3.28;;;35.70;86.10;;;;;;5132169;27;19915;-57
2022/06/29 11:25:35;;;;;;;5.97;2.65;;;35.90;89.00;;;;;;5134211;27;20039;-55
2022/06/29 11:28:02;;;;;;;5.15;2.25;;;36.20;87.70;;;;;;5134051;27;20127;-51
2022/06/29 11:30:28;;;;;;;4.82;3.17;;;36.10;87.00;;;;;;5135168;27;20428;-53
2022/06/29 11:32:53;;;;;;;6.28;3.22;;;35.90;88.80;;;;;;5102836;27;20028;-50
2022/06/29 11:35:21;;;;;;;5.07;2.60;;;36.10;89.30;;;;;;5099221;28;20084;-57
2022/06/29 11:37:48;;;;;;;5.05;2.70;;;36.00;89.20;;;;;;5111766;28;20405;-57
2022/06/29 11:40:17;;;;;;;4.78;2.90;;;35.80;87.30;;;;;;5114036;28;20023;-56
2022/06/29 11:45:44;;;;;;;9.70;3.38;;;36.30;89.50;;;;;;5107466;28;20038;-57
2022/06/29 11:48:23;;;;;;;13.10;3.53;;;36.30;91.50;;;;;;5110317;28;20116;-57
2022/06/29 11:50:49;;;;;;;4.10;2.72;;;36.30;93.40;;;;;;5113460;28;20368;-56
2022/06/29 11:53:43;;;;;;;4.63;2.83;;;36.20;94.10;;;;;;5097921;28;20034;-56
2022/06/29 11:56:10;;;;;;;5.55;3.00;;;;;;;;;;5097225;28;20047;-56
2022/06/29 11:58:38;;;;;;;3.97;2.67;;;;;;;;;;5097254;28;20028;-56
2022/06/29 12:01:07;;;;;;;4.57;3.03;;;;;;;;;;5097515;28;20070;-57
2022/06/29 12:03:33;;;;;;;10.18;3.42;;;;;;;;;;5097615;28;20024;-56
2022/06/29 12:06:00;;;;;;;5.38;3.50;;;;;;;;;;5095468;28;20361;-56
2022/06/29 12:08:29;;;;;;;4.50;2.83;;;;;;;;;;5095420;28;20502;-56
2022/06/29 12:10:56;;;;;;;4.15;2.70;;;;;;;;;;5096394;28;20062;-57
2022/06/29 12:13:22;;;;;;;21.30;9.65;;;36.50;85.90;;;;;;5096776;28;20028;-53
2022/06/29 12:15:48;;;;;;;9.38;2.83;;;36.60;85.90;;;;;;5096659;28;20119;-60
2022/06/29 12:18:15;;;;;;;5.70;2.65;;;36.70;85.70;;;;;;5096715;28;20099;-61
2022/06/29 12:20:41;;;;;;;4.03;2.53;;;36.00;86.00;;;;;;5096689;28;20024;-53
2022/06/29 12:23:07;;;;;;;4.40;2.65;;;;;;;;;;5096332;28;20452;-57
2022/06/29 12:25:32;;;;;;;3.45;2.10;;;35.90;90.40;;;;;;5131044;27;20074;-56
2022/06/29 12:27:58;;;;;;;3.80;2.13;;;36.70;92.60;;;;;;5137635;27;20027;-52
2022/06/29 12:30:24;;;;;;;5.18;3.08;;;36.90;89.70;;;;;;5137687;27;20462;-54
2022/06/29 12:32:50;;;;;;;6.30;2.45;;;36.80;91.60;;;;;;5137614;27;20027;-55
2022/06/29 12:35:15;;;;;;;3.28;2.42;;;37.10;85.10;;;;;;5137758;27;20030;-60
2022/06/29 12:37:43;;;;;;;4.07;2.33;;;37.10;84.10;;;;;;5137540;27;20027;-52
2022/06/29 12:40:14;;;;;;;5.60;2.75;;;37.00;84.30;;;;;;5135691;27;20031;-54
2022/06/29 12:42:40;;;;;;;3.73;2.00;;;37.00;84.30;;;;;;5137423;27;20397;-54
2022/06/29 12:45:07;;;;;;;3.22;1.70;;;36.90;80.60;;;;;;5137556;27;20011;-52
2022/06/29 12:47:32;;;;;;;3.40;1.83;;;36.50;79.70;;;;;;5100739;27;20039;-59
2022/06/29 12:50:01;;;;;;;17.85;8.70;;;36.60;79.30;;;;;;5137094;27;20412;-53
2022/06/29 12:52:27;;;;;;;2.88;1.73;;;36.40;78.50;;;;;;5137353;27;20037;-52
2022/06/29 12:54:52;;;;;;;15.07;4.03;;;37.00;79.50;;;;;;5135603;27;20525;-53
2022/06/29 12:57:18;;;;;;;285.45;260.13;;;37.10;79.10;;;;;;5135124;27;20120;-53
2022/06/29 12:59:44;;;;;;;4.78;3.90;;;36.90;79.30;;;;;;5134809;27;20066;-55
2022/06/29 13:02:12;;;;;;;23.67;9.93;;;36.80;79.20;;;;;;5134653;27;20479;-56
2022/06/29 13:04:38;;;;;;;8.23;1.58;;;36.30;79.20;;;;;;5117888;27;20031;-54
2022/06/29 13:07:04;;;;;;;2.20;1.85;;;36.20;78.50;;;;;;5134813;27;20133;-55
2022/06/29 13:09:30;;;;;;;494.25;453.35;;;36.40;78.80;;;;;;5134739;27;20467;-53
2022/06/29 13:11:55;;;;;;;3.03;1.90;;;36.30;79.50;;;;;;5134628;27;20071;-54
2022/06/29 13:14:21;;;;;;;1.88;1.75;;;36.00;82.60;;;;;;5100485;27;20027;-52
2022/06/29 13:16:48;;;;;;;4.90;2.10;;;36.20;84.00;;;;;;5134387;27;20035;-52
2022/06/29 13:19:15;;;;;;;1.50;1.38;;;36.40;84.10;;;;;;5100822;27;20039;-56
2022/06/29 13:21:41;;;;;;;2.13;1.27;;;36.40;79.10;;;;;;5134535;27;20072;-55
2022/06/29 13:24:07;;;;;;;1.83;1.50;;;36.20;86.40;;;;;;5134306;27;20059;-53
2022/06/29 13:26:34;;;;;;;4.53;2.40;;;36.20;89.70;;;;;;5134256;27;20031;-56
2022/06/29 13:29:00;;;;;;;676.38;620.45;;;36.30;91.30;;;;;;5117343;27;20050;-55
2022/06/29 13:31:26;;;;;;;275.23;246.90;;;;;;;;;;5136503;27;20389;-54
2022/06/29 13:33:51;;;;;;;207.20;187.52;;;36.50;82.10;;;;;;5136104;27;20015;-53
2022/06/29 13:36:17;;;;;;;7.10;2.10;;;36.60;85.80;;;;;;5136469;27;20041;-54
2022/06/29 13:38:43;;;;;;;2.28;1.60;;;36.60;85.80;;;;;;5136748;27;20471;-53
2022/06/29 13:41:09;;;;;;;5.30;2.35;;;36.40;85.90;;;;;;5134460;27;20386;-55
2022/06/29 13:43:35;;;;;;;2.42;1.58;;;36.10;88.20;;;;;;5136325;27;20533;-55